createdAt,value
2023-01-07T00:00:40.051Z,15.63
2023-01-07T00:05:44.034Z,12.80
2023-01-07T00:10:46.601Z,15.03
2023-01-07T00:15:49.261Z,14.80
2023-01-07T00:20:51.828Z,11.63
2023-01-07T00:26:03.235Z,11.20
2023-01-07T00:31:14.382Z,15.77
2023-01-07T00:36:17.159Z,18.67
2023-01-07T00:41:19.703Z,11.50
2023-01-07T00:46:22.921Z,15.17
2023-01-07T00:51:25.658Z,18.63
2023-01-07T00:56:28.233Z,14.07
2023-01-07T01:01:31.043Z,13.57
2023-01-07T01:06:33.748Z,16.13
2023-01-07T01:11:36.426Z,14.93
2023-01-07T01:16:39.443Z,10.27
2023-01-07T01:21:42.337Z,12.23
2023-01-07T01:26:44.991Z,13.67
2023-01-07T01:31:48.665Z,13.63
2023-01-07T01:36:51.673Z,17.33
2023-01-07T01:41:54.510Z,11.27
2023-01-07T01:46:57.222Z,12.57
2023-01-07T01:52:13.084Z,13.03
2023-01-07T01:57:20.686Z,8.50
2023-01-07T02:07:32.216Z,10.20
2023-01-07T02:12:56.751Z,12.03
2023-01-07T02:18:15.375Z,13.93
2023-01-07T02:23:44.078Z,11.10
2023-01-07T02:29:22.684Z,11.43
2023-01-07T02:34:50.501Z,21.08
2023-01-07T02:40:05.307Z,13.13
2023-01-07T02:45:07.862Z,9.30
2023-01-07T02:50:14.656Z,14.57
2023-01-07T02:55:22.424Z,15.20
2023-01-07T03:00:47.116Z,15.20
2023-01-07T03:06:05.086Z,14.27
2023-01-07T03:11:10.213Z,16.77
2023-01-07T03:16:36.618Z,13.20
2023-01-07T03:21:39.483Z,10.17
2023-01-07T03:26:48.900Z,13.47
2023-01-07T03:37:18.721Z,21.07
2023-01-07T03:42:42.316Z,12.20
2023-01-07T03:47:53.304Z,11.80
2023-01-07T03:52:57.106Z,14.80
2023-01-07T03:58:00.625Z,12.10
2023-01-07T04:03:03.418Z,18.70
2023-01-07T04:08:14.086Z,14.27
2023-01-07T04:13:17.663Z,11.37
2023-01-07T04:18:22.837Z,17.57
2023-01-07T04:23:25.578Z,14.03
2023-01-07T04:28:30.087Z,13.73
2023-01-07T04:33:33.240Z,17.90
2023-01-07T04:38:36.120Z,24.43
2023-01-07T04:43:40.045Z,12.03
2023-01-07T04:48:43.759Z,10.87
2023-01-07T04:53:47.833Z,11.47
2023-01-07T04:58:50.609Z,12.53
2023-01-07T05:03:54.146Z,14.93
2023-01-07T05:08:56.825Z,7.70
2023-01-07T05:14:00.984Z,12.10
2023-01-07T05:19:06.912Z,17.40
2023-01-07T05:24:14.409Z,13.03
2023-01-07T05:29:17.483Z,12.00
2023-01-07T05:34:21.705Z,12.73
2023-01-07T05:39:26.082Z,9.30
2023-01-07T05:44:29.273Z,14.57
2023-01-07T05:49:31.923Z,11.00
2023-01-07T05:54:34.483Z,10.90
2023-01-07T05:59:37.077Z,11.93
2023-01-07T06:04:39.800Z,14.10
2023-01-07T06:09:42.476Z,12.97
2023-01-07T06:14:45.051Z,11.30
2023-01-07T06:19:47.979Z,14.00
2023-01-07T06:24:50.627Z,17.07
2023-01-07T06:29:54.289Z,13.77
2023-01-07T06:34:56.906Z,12.27
2023-01-07T06:39:59.553Z,9.57
2023-01-07T06:45:02.185Z,11.03
2023-01-07T06:50:06.272Z,12.17
2023-01-07T06:55:09.515Z,12.10
2023-01-07T07:00:12.740Z,14.13
2023-01-07T07:05:15.704Z,15.37
2023-01-07T07:10:18.420Z,14.37
2023-01-07T07:15:21.030Z,12.57
2023-01-07T07:20:23.808Z,15.20
2023-01-07T07:25:26.419Z,16.17
2023-01-07T07:30:45.524Z,13.00
2023-01-07T07:35:49.701Z,18.43
2023-01-07T07:40:52.286Z,10.93
2023-01-07T07:45:54.967Z,16.13
2023-01-07T07:50:57.768Z,14.40
2023-01-07T07:56:00.415Z,10.83
2023-01-07T08:01:03.180Z,12.63
2023-01-07T08:06:06.462Z,15.07
2023-01-07T08:11:09.334Z,12.23
2023-01-07T08:16:12.002Z,14.23
2023-01-07T08:21:14.876Z,13.97
2023-01-07T08:26:20.258Z,13.73
2023-01-07T08:31:23.668Z,14.67
2023-01-07T08:36:26.724Z,13.43
2023-01-07T08:41:29.333Z,13.30
2023-01-07T08:46:34.870Z,15.33
2023-01-07T08:51:37.695Z,17.57
2023-01-07T08:56:40.368Z,16.23
2023-01-07T09:01:43.089Z,14.80
2023-01-07T09:06:45.839Z,20.10
2023-01-07T09:11:48.386Z,12.87
2023-01-07T09:16:50.995Z,14.33
2023-01-07T09:21:53.583Z,14.00
2023-01-07T09:26:56.170Z,12.57
2023-01-07T09:31:58.881Z,13.87
2023-01-07T09:37:01.559Z,12.47
2023-01-07T09:42:43.858Z,14.67
2023-01-07T09:47:50.367Z,9.73
2023-01-07T09:52:57.562Z,14.47
2023-01-07T09:58:00.431Z,9.87
2023-01-07T10:03:30.333Z,13.87
2023-01-07T10:14:04.370Z,14.40
2023-01-07T10:19:06.843Z,10.73
2023-01-07T10:24:21.951Z,13.70
2023-01-07T10:29:44.820Z,18.27
2023-01-07T10:34:50.385Z,11.83
2023-01-07T10:40:17.885Z,12.77
2023-01-07T10:45:52.819Z,12.20
2023-01-07T10:51:34.029Z,12.67
2023-01-07T10:56:42.442Z,11.37
2023-01-07T11:01:52.300Z,16.50
2023-01-07T11:07:07.738Z,12.02
2023-01-07T11:12:39.002Z,22.57
2023-01-07T11:18:21.928Z,21.33
2023-01-07T11:23:38.216Z,17.97
2023-01-07T11:28:56.076Z,16.20
2023-01-07T11:34:02.902Z,20.97
2023-01-07T11:39:22.725Z,12.40
2023-01-07T11:44:26.916Z,13.87
2023-01-07T11:49:31.171Z,15.50
2023-01-07T11:54:33.993Z,27.17
2023-01-07T11:59:36.545Z,20.97
2023-01-07T12:04:40.433Z,17.93
2023-01-07T12:09:45.583Z,17.10
2023-01-07T12:14:48.859Z,17.80
2023-01-07T12:20:21.418Z,18.57
2023-01-07T12:25:24.352Z,20.60
2023-01-07T12:30:32.773Z,17.53
2023-01-07T12:35:42.948Z,17.40
2023-01-07T12:40:51.439Z,16.23
2023-01-07T12:46:00.974Z,17.23
2023-01-07T12:51:14.173Z,12.70
2023-01-07T12:56:27.515Z,16.50
2023-01-07T13:01:37.108Z,17.67
2023-01-07T13:07:05.575Z,13.30
2023-01-07T13:12:45.585Z,20.00
2023-01-07T13:17:50.534Z,19.17
2023-01-07T13:22:56.613Z,19.97
2023-01-07T13:28:14.298Z,20.27
2023-01-07T13:33:25.236Z,19.37
2023-01-07T13:38:38.731Z,20.87
2023-01-07T13:43:59.262Z,19.37
2023-01-07T13:49:02.025Z,16.17
2023-01-07T13:54:04.799Z,44.37
2023-01-07T13:59:31.046Z,44.00
2023-01-07T14:04:36.936Z,22.20
2023-01-07T14:09:41.173Z,17.17
2023-01-07T14:15:23.143Z,18.77
2023-01-07T14:21:21.411Z,27.10
2023-01-07T14:26:52.843Z,23.00
2023-01-07T14:32:29.773Z,19.57
2023-01-07T14:37:36.963Z,45.67
2023-01-07T14:42:43.037Z,26.60
2023-01-07T14:47:45.687Z,33.30
2023-01-07T14:53:22.423Z,29.33
2023-01-07T14:58:50.867Z,15.57
2023-01-07T15:04:02.490Z,19.87
2023-01-07T15:09:32.498Z,20.60
2023-01-07T15:14:53.902Z,26.40
2023-01-07T15:19:58.025Z,19.33
2023-01-07T15:25:09.214Z,19.37
2023-01-07T15:30:26.481Z,19.63
2023-01-07T15:35:34.376Z,19.10
2023-01-07T15:40:37.546Z,14.70
2023-01-07T15:45:40.338Z,21.57
2023-01-07T15:50:46.089Z,20.33
2023-01-07T15:56:03.183Z,18.63
2023-01-07T16:01:08.660Z,18.33
2023-01-07T16:06:36.647Z,20.37
2023-01-07T16:11:39.556Z,23.87
2023-01-07T16:16:42.652Z,24.07
2023-01-07T16:21:58.402Z,26.40
2023-01-07T16:27:05.430Z,22.90
2023-01-07T16:32:09.069Z,20.77
2023-01-07T16:37:15.944Z,20.60
2023-01-07T16:42:23.663Z,17.47
2023-01-07T16:47:32.385Z,23.93
2023-01-07T16:52:35.083Z,21.30
2023-01-07T16:57:42.682Z,24.80
2023-01-07T17:02:57.107Z,17.43
2023-01-07T17:08:05.589Z,20.63
2023-01-07T17:13:14.674Z,27.13
2023-01-07T17:18:17.738Z,25.87
2023-01-07T17:23:26.833Z,28.70
2023-01-07T17:28:33.181Z,23.17
2023-01-07T17:33:37.321Z,27.13
2023-01-07T17:38:40.163Z,23.93
2023-01-07T17:43:43.288Z,21.27
2023-01-07T17:48:46.332Z,27.20
2023-01-07T17:53:51.141Z,30.27
2023-01-07T17:58:55.955Z,32.97
2023-01-07T18:03:59.375Z,34.23
2023-01-07T18:09:05.169Z,28.13
2023-01-07T18:14:15.713Z,36.63
2023-01-07T18:19:20.029Z,30.27
2023-01-07T18:24:22.956Z,30.47
2023-01-07T18:29:26.152Z,27.90
2023-01-07T18:34:29.364Z,26.50
2023-01-07T18:39:32.254Z,28.60
2023-01-07T18:44:35.502Z,33.17
2023-01-07T18:49:38.609Z,31.27
2023-01-07T18:54:41.713Z,32.73
2023-01-07T18:59:44.758Z,25.03
2023-01-07T19:04:49.051Z,35.13
2023-01-07T19:09:53.227Z,29.53
2023-01-07T19:14:56.716Z,29.83
2023-01-07T19:19:59.839Z,25.67
2023-01-07T19:25:02.938Z,27.67
2023-01-07T19:30:07.523Z,29.93
2023-01-07T19:35:10.681Z,23.27
2023-01-07T19:40:13.995Z,23.80
2023-01-07T19:45:16.823Z,27.20
2023-01-07T19:50:19.716Z,23.30
2023-01-07T19:55:24.651Z,23.93
2023-01-07T20:00:27.432Z,25.87
2023-01-07T20:05:30.680Z,28.13
2023-01-07T20:10:35.624Z,30.83
2023-01-07T20:15:38.516Z,24.83
2023-01-07T20:20:41.644Z,22.13
2023-01-07T20:25:48.279Z,21.00
2023-01-07T20:30:51.374Z,18.27
2023-01-07T20:36:06.700Z,20.07
2023-01-07T20:41:13.159Z,20.67
2023-01-07T20:46:16.114Z,16.73
2023-01-07T20:51:19.384Z,18.37
2023-01-07T20:56:24.420Z,16.03
2023-01-07T21:01:27.588Z,17.00
2023-01-07T21:06:31.011Z,19.23
2023-01-07T21:11:34.021Z,13.03
2023-01-07T21:16:37.632Z,18.57
2023-01-07T21:21:40.718Z,19.73
2023-01-07T21:26:44.525Z,17.93
2023-01-07T21:31:47.440Z,19.43
2023-01-07T21:36:53.062Z,15.43
2023-01-07T21:41:55.724Z,15.20
2023-01-07T21:46:58.263Z,14.27
2023-01-07T21:52:00.891Z,16.53
2023-01-07T21:57:03.695Z,15.57
2023-01-07T22:02:06.477Z,15.73
2023-01-07T22:07:19.460Z,11.23
2023-01-07T22:12:23.452Z,11.73
2023-01-07T22:17:26.840Z,12.57
2023-01-07T22:22:29.427Z,15.23
2023-01-07T22:27:32.113Z,18.00
2023-01-07T22:32:34.731Z,14.70
2023-01-07T22:37:37.422Z,13.47
2023-01-07T22:42:55.893Z,11.33
2023-01-07T22:47:58.702Z,17.13
2023-01-07T22:53:01.430Z,10.63
2023-01-07T22:58:04.961Z,14.80
2023-01-07T23:03:07.595Z,12.47
2023-01-07T23:08:10.956Z,20.23
2023-01-07T23:13:13.530Z,12.03
2023-01-07T23:18:16.957Z,13.47
2023-01-07T23:23:19.592Z,16.30
2023-01-07T23:28:22.177Z,15.47
2023-01-07T23:33:24.705Z,18.23
2023-01-07T23:38:27.409Z,16.90
2023-01-07T23:43:30.974Z,13.53
2023-01-07T23:48:35.260Z,12.60
2023-01-07T23:53:38.439Z,13.33
2023-01-07T23:58:41.162Z,13.30
